Time;durP1;ratioP1;P1;durP2;ratioP2;P2;SDS_P1;SDS_P2;PMS_P1;PMS_P2;Temp;Humidity;BMP_temperature;BMP_pressure;BME280_temperature;BME280_humidity;BME280_pressure;Samples;Min_cycle;Max_cycle;Signal;HPM_P1;HPM_P2
2022/09/16 00:01:14;;;;;;;7.78;1.35;;;11.70;99.90;;;;;;5119688;27;20039;-90
2022/09/16 00:03:41;;;;;;;5.15;1.02;;;11.70;99.90;;;;;;5136883;27;20500;-89
2022/09/16 00:06:15;;;;;;;3.05;1.17;;;11.70;99.90;;;;;;5137008;27;20045;-89
2022/09/16 00:08:42;;;;;;;3.33;1.00;;;11.70;99.90;;;;;;5136915;27;20043;-89
2022/09/16 00:11:08;;;;;;;4.07;1.08;;;11.70;99.90;;;;;;5136522;27;20047;-89
2022/09/16 00:13:34;;;;;;;3.92;1.25;;;11.70;99.90;;;;;;5137151;27;20045;-89
2022/09/16 00:16:00;;;;;;;3.80;1.00;;;11.70;99.90;;;;;;5136883;27;20054;-89
2022/09/16 00:18:25;;;;;;;5.28;1.10;;;11.70;99.90;;;;;;5136575;27;20039;-90
2022/09/16 00:20:53;;;;;;;6.03;1.35;;;11.70;99.90;;;;;;5136991;27;20167;-89
2022/09/16 00:23:19;;;;;;;10.38;1.35;;;11.70;99.90;;;;;;5136688;27;20142;-89
2022/09/16 00:25:52;;;;;;;6.20;1.63;;;11.80;99.90;;;;;;5136803;27;20645;-89
2022/09/16 00:28:20;;;;;;;4.72;1.20;;;11.80;99.90;;;;;;5155344;27;20046;-89
2022/09/16 00:30:46;;;;;;;4.70;1.40;;;11.90;99.90;;;;;;5155194;27;20066;-89
2022/09/16 00:33:12;;;;;;;6.40;1.60;;;11.80;99.90;;;;;;5136157;27;20130;-89
2022/09/16 00:35:37;;;;;;;6.63;1.10;;;11.90;99.90;;;;;;5136361;27;20042;-89
2022/09/16 00:38:03;;;;;;;10.68;1.77;;;11.90;99.90;;;;;;5119222;27;20043;-89
2022/09/16 00:40:28;;;;;;;5.22;1.10;;;11.80;99.90;;;;;;5118946;27;20046;-89
2022/09/16 00:42:54;;;;;;;7.82;1.30;;;11.90;99.90;;;;;;5136330;27;20062;-89
2022/09/16 00:45:22;;;;;;;5.18;1.10;;;11.80;99.90;;;;;;5135762;27;20034;-89
2022/09/16 00:48:04;;;;;;;3.63;1.00;;;11.80;99.90;;;;;;5118778;27;20549;-89
2022/09/16 00:51:14;;;;;;;5.65;1.15;;;11.80;99.90;;;;;;5136200;27;20117;-89
2022/09/16 00:53:48;;;;;;;5.07;1.00;;;11.90;99.90;;;;;;5033944;28;20048;-90
2022/09/16 00:56:17;;;;;;;4.95;1.08;;;11.90;99.90;;;;;;5119760;27;20107;-89
2022/09/16 00:59:00;;;;;;;4.70;1.15;;;11.90;99.90;;;;;;5135945;27;20121;-89
2022/09/16 01:01:27;;;;;;;4.13;1.20;;;11.90;99.90;;;;;;5135761;27;20035;-89
2022/09/16 01:03:57;;;;;;;9.27;1.38;;;11.90;99.90;;;;;;5135583;27;20551;-89
2022/09/16 01:06:24;;;;;;;4.47;1.40;;;11.90;99.90;;;;;;5136201;27;20377;-89
2022/09/16 01:08:50;;;;;;;4.60;1.10;;;11.90;99.90;;;;;;5136122;27;20129;-89
2022/09/16 01:11:16;;;;;;;7.70;1.83;;;11.90;99.90;;;;;;5135123;27;20503;-89
2022/09/16 01:13:45;;;;;;;5.10;1.15;;;12.00;99.90;;;;;;5118872;27;20027;-89
2022/09/16 01:16:33;;;;;;;4.07;1.05;;;12.00;99.90;;;;;;5135690;27;20042;-89
2022/09/16 01:19:29;;;;;;;4.43;1.48;;;12.00;99.90;;;;;;5135676;27;20053;-89
2022/09/16 01:22:18;;;;;;;7.95;1.70;;;12.00;99.90;;;;;;5135351;27;20088;-90
2022/09/16 01:24:58;;;;;;;5.07;1.05;;;12.00;99.90;;;;;;5135361;27;20689;-89
2022/09/16 01:27:49;;;;;;;3.90;0.82;;;12.00;99.90;;;;;;5135524;27;20139;-89
2022/09/16 01:30:39;;;;;;;6.32;1.20;;;12.00;99.90;;;;;;5135672;27;20113;-89
2022/09/16 01:33:19;;;;;;;8.35;1.60;;;12.10;99.90;;;;;;5117724;27;20039;-89
2022/09/16 01:35:57;;;;;;;7.28;1.52;;;12.20;99.90;;;;;;5135346;27;20087;-89
2022/09/16 01:38:30;;;;;;;6.15;1.27;;;12.20;99.90;;;;;;5118257;27;20430;-89
2022/09/16 01:41:06;;;;;;;6.13;1.25;;;12.20;99.90;;;;;;5117497;27;20043;-89
2022/09/16 01:43:55;;;;;;;5.25;1.13;;;12.20;99.90;;;;;;5135277;27;20125;-89
2022/09/16 01:46:25;;;;;;;4.72;1.13;;;12.10;99.90;;;;;;5135150;27;20496;-88
2022/09/16 01:49:10;;;;;;;9.18;1.23;;;12.10;99.90;;;;;;5134723;27;20084;-88
2022/09/16 01:51:52;;;;;;;5.45;1.35;;;12.10;99.90;;;;;;5135020;27;20121;-88
2022/09/16 01:54:38;;;;;;;7.70;1.10;;;12.10;99.90;;;;;;5117851;27;20034;-88
2022/09/16 01:57:09;;;;;;;6.68;1.15;;;12.00;99.90;;;;;;5134260;27;20309;-87
2022/09/16 01:59:51;;;;;;;4.05;1.10;;;12.00;99.90;;;;;;5135393;27;20596;-88
2022/09/16 02:02:20;;;;;;;7.72;1.30;;;12.00;99.90;;;;;;5134449;27;20072;-88
2022/09/16 02:04:53;;;;;;;3.15;1.02;;;12.00;99.90;;;;;;5134792;27;20039;-88
2022/09/16 02:07:23;;;;;;;7.10;0.93;;;11.90;99.90;;;;;;5117756;27;20027;-88
2022/09/16 02:09:55;;;;;;;7.13;1.58;;;11.90;99.90;;;;;;5117468;27;20030;-88
2022/09/16 02:12:25;;;;;;;5.53;1.27;;;12.00;99.90;;;;;;5134917;27;20042;-88
2022/09/16 02:14:55;;;;;;;6.05;1.00;;;12.00;99.90;;;;;;5135178;27;20046;-88
2022/09/16 02:17:25;;;;;;;6.65;1.50;;;12.00;99.90;;;;;;5134651;27;20046;-88
2022/09/16 02:20:16;;;;;;;6.18;2.10;;;12.00;99.90;;;;;;5134600;27;20078;-88
2022/09/16 02:22:56;;;;;;;4.95;1.00;;;12.00;99.90;;;;;;5117226;27;20526;-88
2022/09/16 02:25:22;;;;;;;6.18;0.95;;;12.00;99.90;;;;;;5153162;27;20031;-88
2022/09/16 02:27:49;;;;;;;5.88;1.17;;;12.00;99.90;;;;;;5153209;27;20464;-88
2022/09/16 02:30:19;;;;;;;6.53;1.15;;;11.90;99.90;;;;;;5134531;27;20043;-88
2022/09/16 02:32:48;;;;;;;6.88;1.38;;;12.00;99.90;;;;;;5133974;27;20487;-88
2022/09/16 02:35:17;;;;;;;8.82;1.58;;;12.00;99.90;;;;;;5134905;27;20046;-88
2022/09/16 02:37:51;;;;;;;6.55;1.50;;;12.00;99.90;;;;;;5134434;27;20099;-88
2022/09/16 02:40:24;;;;;;;5.93;1.05;;;12.00;99.90;;;;;;5134154;27;20071;-88
2022/09/16 02:42:50;;;;;;;8.95;1.50;;;12.00;99.90;;;;;;5134193;27;20038;-88
2022/09/16 02:45:16;;;;;;;5.65;1.38;;;12.00;99.90;;;;;;5134794;27;20517;-87
2022/09/16 02:47:57;;;;;;;4.72;0.90;;;12.00;99.90;;;;;;5134237;27;20039;-88
2022/09/16 02:50:32;;;;;;;4.63;0.90;;;12.00;99.90;;;;;;5134690;27;20038;-88
2022/09/16 02:53:00;;;;;;;4.95;1.00;;;12.00;99.90;;;;;;5134547;27;20039;-88
2022/09/16 02:55:47;;;;;;;5.53;1.23;;;12.00;99.90;;;;;;5133980;27;20045;-88
2022/09/16 02:58:12;;;;;;;4.95;0.98;;;11.90;99.90;;;;;;5117480;27;20042;-88
2022/09/16 03:00:43;;;;;;;6.15;1.10;;;11.80;99.90;;;;;;5134178;27;20045;-88
2022/09/16 03:03:09;;;;;;;4.95;1.10;;;11.80;99.90;;;;;;5133821;27;20037;-88
2022/09/16 03:05:34;;;;;;;6.00;1.20;;;11.70;99.90;;;;;;5134368;27;20376;-88
2022/09/16 03:08:02;;;;;;;7.38;1.48;;;11.70;99.90;;;;;;5134445;27;20082;-88
2022/09/16 03:10:36;;;;;;;8.13;1.17;;;11.70;99.90;;;;;;5138160;27;20568;-88
2022/09/16 03:13:17;;;;;;;4.82;1.02;;;11.70;99.90;;;;;;5137873;27;20575;-88
2022/09/16 03:16:18;;;;;;;5.25;1.20;;;11.60;99.90;;;;;;5120923;27;20041;-88
2022/09/16 03:19:01;;;;;;;5.50;1.00;;;11.60;99.90;;;;;;5138268;27;20125;-87
2022/09/16 03:21:53;;;;;;;3.80;1.00;;;11.60;99.90;;;;;;5138064;27;20147;-87
2022/09/16 03:24:50;;;;;;;3.63;0.88;;;11.50;99.90;;;;;;5120491;27;20046;-88
2022/09/16 03:27:25;;;;;;;5.60;1.33;;;11.50;99.90;;;;;;5120626;27;20122;-88
2022/09/16 03:30:02;;;;;;;5.55;1.23;;;11.50;99.90;;;;;;5137820;27;20046;-88
2022/09/16 03:32:36;;;;;;;7.03;1.33;;;11.50;99.90;;;;;;5137339;27;20099;-87
2022/09/16 03:35:05;;;;;;;7.82;1.85;;;11.50;99.90;;;;;;5137600;27;20121;-88
2022/09/16 03:37:34;;;;;;;5.20;1.23;;;11.60;99.90;;;;;;5137627;27;20039;-87
2022/09/16 03:40:13;;;;;;;7.00;1.10;;;11.60;99.90;;;;;;5120054;27;20035;-88
2022/09/16 03:42:40;;;;;;;7.97;1.45;;;11.60;99.90;;;;;;5120179;27;20035;-88
2022/09/16 03:45:06;;;;;;;4.60;1.20;;;11.60;99.90;;;;;;5137855;27;20084;-88
2022/09/16 03:47:32;;;;;;;5.45;1.10;;;11.60;99.90;;;;;;5120103;27;20042;-88
2022/09/16 03:49:58;;;;;;;7.43;1.15;;;11.70;99.90;;;;;;5137718;27;20042;-88
2022/09/16 03:52:23;;;;;;;8.57;1.20;;;11.70;99.90;;;;;;5137305;27;20432;-88
2022/09/16 03:54:49;;;;;;;6.93;1.08;;;11.70;99.90;;;;;;5137126;27;20126;-87
2022/09/16 03:57:14;;;;;;;5.63;0.98;;;11.70;99.90;;;;;;5120023;27;20404;-88
2022/09/16 03:59:40;;;;;;;5.88;1.05;;;11.70;99.90;;;;;;5137192;27;20042;-88
2022/09/16 04:02:06;;;;;;;4.78;1.10;;;11.80;99.90;;;;;;5119270;27;20167;-88
2022/09/16 04:04:32;;;;;;;8.73;1.70;;;11.70;99.90;;;;;;5137152;27;20034;-87
2022/09/16 04:06:57;;;;;;;7.50;1.40;;;11.70;99.90;;;;;;5137065;27;20452;-88
2022/09/16 04:09:23;;;;;;;7.85;1.13;;;11.70;99.90;;;;;;5136806;27;20035;-88
2022/09/16 04:11:48;;;;;;;5.78;1.20;;;11.70;99.90;;;;;;5119965;27;20038;-87
2022/09/16 04:14:14;;;;;;;8.15;1.48;;;11.60;99.90;;;;;;5119690;27;20035;-87
2022/09/16 04:16:40;;;;;;;6.18;1.10;;;11.60;99.90;;;;;;5136487;27;20050;-87
2022/09/16 04:19:06;;;;;;;6.93;1.25;;;11.60;99.90;;;;;;5137158;27;20043;-87
2022/09/16 04:21:32;;;;;;;7.68;1.60;;;11.50;99.90;;;;;;5135847;27;20051;-87
2022/09/16 04:23:57;;;;;;;4.50;1.25;;;11.60;99.90;;;;;;5136521;27;20035;-88
2022/09/16 04:26:23;;;;;;;9.52;1.13;;;11.60;99.90;;;;;;5136484;27;20130;-88
2022/09/16 04:28:52;;;;;;;5.55;1.25;;;11.50;99.90;;;;;;5136738;27;20034;-88
2022/09/16 04:31:17;;;;;;;4.38;1.00;;;11.50;99.90;;;;;;5135839;27;20129;-88
2022/09/16 04:33:43;;;;;;;5.18;0.90;;;11.50;99.90;;;;;;5136697;27;20122;-88
2022/09/16 04:36:11;;;;;;;4.95;1.15;;;11.50;99.90;;;;;;5136451;27;20406;-88
2022/09/16 04:38:37;;;;;;;5.78;1.10;;;11.50;99.90;;;;;;5136255;27;20039;-88
2022/09/16 04:41:06;;;;;;;5.28;0.98;;;11.50;99.90;;;;;;5118925;27;20043;-88
2022/09/16 04:43:31;;;;;;;6.32;1.40;;;11.50;99.90;;;;;;5136512;27;20521;-87
2022/09/16 04:45:57;;;;;;;7.97;1.17;;;11.50;99.90;;;;;;5135874;27;20035;-88
2022/09/16 04:48:24;;;;;;;7.43;1.42;;;11.50;99.90;;;;;;5136352;27;20054;-88
2022/09/16 04:50:51;;;;;;;7.38;1.33;;;11.50;99.90;;;;;;5136138;27;20096;-88
2022/09/16 04:53:18;;;;;;;7.00;1.70;;;11.40;99.90;;;;;;5135692;27;20085;-87
2022/09/16 04:55:44;;;;;;;5.10;1.15;;;11.40;99.90;;;;;;5136257;27;20039;-88
2022/09/16 04:58:09;;;;;;;4.57;1.02;;;11.30;99.90;;;;;;5136225;27;20045;-88
2022/09/16 05:00:35;;;;;;;9.52;1.95;;;11.30;99.90;;;;;;5135572;27;20537;-88
2022/09/16 05:03:00;;;;;;;5.20;1.20;;;11.20;99.90;;;;;;5118432;27;20080;-88
2022/09/16 05:05:26;;;;;;;7.57;1.60;;;11.20;99.90;;;;;;5136186;27;20034;-88
2022/09/16 05:07:52;;;;;;;6.95;1.63;;;11.20;99.90;;;;;;5133174;27;20552;-88
2022/09/16 05:10:17;;;;;;;7.53;1.45;;;11.20;99.90;;;;;;5134719;27;20099;-87
2022/09/16 05:12:43;;;;;;;5.40;1.92;;;11.10;99.90;;;;;;5117144;27;20156;-87
2022/09/16 05:15:09;;;;;;;4.75;1.67;;;11.10;99.90;;;;;;5134187;27;20045;-88
2022/09/16 05:17:34;;;;;;;10.05;1.55;;;11.10;99.90;;;;;;5117667;27;20037;-87
2022/09/16 05:20:00;;;;;;;5.85;1.58;;;11.10;99.90;;;;;;5134660;27;20087;-87
2022/09/16 05:22:26;;;;;;;4.82;1.90;;;11.10;99.90;;;;;;5133793;27;20043;-87
2022/09/16 05:24:51;;;;;;;5.93;1.38;;;11.10;99.90;;;;;;5134752;27;20045;-87
2022/09/16 05:27:17;;;;;;;7.20;2.05;;;11.10;99.90;;;;;;5134368;27;20407;-87
2022/09/16 05:29:43;;;;;;;7.57;1.65;;;11.00;99.90;;;;;;5134374;27;20035;-90
2022/09/16 05:32:08;;;;;;;5.45;1.23;;;11.00;99.90;;;;;;5134282;27;20031;-90
2022/09/16 05:34:35;;;;;;;5.88;1.40;;;11.00;99.90;;;;;;5134338;27;20046;-89
2022/09/16 05:37:01;;;;;;;7.10;1.58;;;11.00;99.90;;;;;;5116417;27;20053;-90
2022/09/16 05:39:27;;;;;;;5.53;1.38;;;11.00;99.90;;;;;;5107328;27;20073;-90
2022/09/16 05:41:58;;;;;;;3.85;1.27;;;11.00;99.90;;;;;;5113828;27;20075;-89
2022/09/16 05:44:25;;;;;;;6.57;1.30;;;11.00;99.90;;;;;;5113731;27;20071;-90
2022/09/16 05:46:51;;;;;;;4.40;1.08;;;11.00;99.90;;;;;;5114024;27;20519;-90
2022/09/16 05:49:19;;;;;;;5.32;1.30;;;11.00;99.90;;;;;;5114234;27;20523;-90
2022/09/16 05:51:46;;;;;;;7.05;1.20;;;11.00;99.90;;;;;;5096401;27;20068;-90
2022/09/16 05:54:12;;;;;;;7.13;1.38;;;10.90;99.90;;;;;;5114126;27;20488;-90
2022/09/16 05:56:38;;;;;;;5.47;1.20;;;10.90;99.90;;;;;;5113983;27;20047;-90
2022/09/16 05:59:04;;;;;;;11.88;1.70;;;10.90;99.90;;;;;;5112961;27;20531;-89
2022/09/16 06:01:31;;;;;;;7.70;1.35;;;10.90;99.90;;;;;;5113840;27;20068;-90
2022/09/16 06:04:00;;;;;;;4.53;1.25;;;10.90;99.90;;;;;;5113990;27;20035;-89
2022/09/16 06:06:34;;;;;;;6.80;1.33;;;10.90;99.90;;;;;;5113682;28;20039;-90
2022/09/16 06:09:08;;;;;;;10.20;1.77;;;11.00;99.90;;;;;;5113874;27;20084;-90
2022/09/16 06:11:39;;;;;;;7.03;1.60;;;11.00;99.90;;;;;;5113581;28;20035;-90
2022/09/16 06:14:06;;;;;;;7.18;1.10;;;11.00;99.90;;;;;;5096562;27;20050;-90
2022/09/16 06:16:32;;;;;;;6.13;1.38;;;11.10;99.90;;;;;;5113860;27;20097;-90
2022/09/16 06:19:00;;;;;;;5.70;1.02;;;11.10;99.90;;;;;;5113552;28;20035;-90
2022/09/16 06:21:26;;;;;;;10.57;2.13;;;11.20;99.90;;;;;;5112535;28;20039;-90
2022/09/16 06:23:52;;;;;;;5.88;1.45;;;11.30;99.90;;;;;;5113708;28;20047;-90
2022/09/16 06:26:23;;;;;;;9.57;1.20;;;11.40;99.90;;;;;;5113366;28;20117;-90
2022/09/16 06:28:50;;;;;;;10.05;1.67;;;11.40;99.90;;;;;;5113234;28;20648;-90
2022/09/16 06:31:22;;;;;;;7.75;1.52;;;11.50;99.90;;;;;;5113314;28;20046;-90
2022/09/16 06:33:49;;;;;;;5.25;1.20;;;11.60;99.90;;;;;;5113761;28;20051;-90
2022/09/16 06:36:21;;;;;;;8.02;1.40;;;11.60;99.90;;;;;;5113048;28;20511;-89
2022/09/16 06:38:47;;;;;;;11.35;2.08;;;11.60;99.90;;;;;;5113328;28;20568;-90
2022/09/16 06:41:14;;;;;;;10.13;1.30;;;11.70;99.90;;;;;;5111603;28;20087;-90
2022/09/16 06:43:40;;;;;;;6.15;1.70;;;11.70;99.90;;;;;;5114397;27;20441;-90
2022/09/16 06:46:12;;;;;;;10.70;1.95;;;11.80;99.90;;;;;;5100773;27;20091;-90
2022/09/16 06:48:39;;;;;;;10.95;1.65;;;11.80;99.90;;;;;;5117602;27;20039;-90
2022/09/16 06:51:08;;;;;;;10.93;1.35;;;11.90;99.90;;;;;;5116860;27;20125;-90
2022/09/16 06:53:34;;;;;;;7.35;1.67;;;12.00;99.90;;;;;;5117536;27;20047;-90
2022/09/16 06:56:04;;;;;;;10.48;1.65;;;12.00;99.90;;;;;;5117613;27;20043;-90
2022/09/16 06:58:34;;;;;;;9.70;1.42;;;12.00;99.90;;;;;;5116952;27;20164;-90
2022/09/16 07:01:10;;;;;;;6.32;1.17;;;12.00;99.90;;;;;;5099817;27;20098;-90
2022/09/16 07:03:44;;;;;;;15.82;2.05;;;12.10;99.90;;;;;;5117320;27;20039;-90
2022/09/16 07:06:11;;;;;;;8.65;1.00;;;12.10;99.90;;;;;;5099779;27;20095;-90
2022/09/16 07:08:38;;;;;;;10.77;2.05;;;12.20;99.90;;;;;;5117028;27;20484;-90
2022/09/16 07:11:11;;;;;;;9.85;1.70;;;12.30;99.90;;;;;;5100300;27;20365;-90
2022/09/16 07:13:36;;;;;;;8.77;1.42;;;12.40;99.90;;;;;;5099623;27;20038;-90
2022/09/16 07:16:05;;;;;;;8.50;1.67;;;12.40;99.90;;;;;;5117012;27;20043;-90
2022/09/16 07:18:31;;;;;;;11.68;2.30;;;12.40;99.90;;;;;;5099471;27;20051;-90
2022/09/16 07:21:02;;;;;;;10.00;1.48;;;12.60;99.90;;;;;;5115972;27;20043;-90
2022/09/16 07:23:30;;;;;;;8.93;1.50;;;12.60;99.90;;;;;;5116855;27;20035;-90
2022/09/16 07:26:06;;;;;;;9.77;1.70;;;12.70;99.90;;;;;;5099836;27;20031;-87
2022/09/16 07:28:32;;;;;;;11.68;2.13;;;12.80;99.90;;;;;;5116137;27;20043;-88
2022/09/16 07:31:02;;;;;;;9.15;1.42;;;12.90;99.90;;;;;;5116491;27;20038;-88
2022/09/16 07:33:30;;;;;;;9.55;1.63;;;12.90;99.90;;;;;;5116902;27;20442;-88
2022/09/16 07:36:00;;;;;;;9.05;1.70;;;13.00;99.90;;;;;;5116486;27;20479;-88
2022/09/16 07:38:28;;;;;;;11.52;1.60;;;13.00;99.90;;;;;;5116407;27;20038;-88
2022/09/16 07:40:53;;;;;;;13.10;1.67;;;13.10;99.90;;;;;;5115743;27;20051;-88
2022/09/16 07:43:19;;;;;;;10.95;1.73;;;13.20;99.90;;;;;;5116190;27;20084;-88
2022/09/16 07:45:44;;;;;;;8.88;1.52;;;13.20;99.90;;;;;;5116585;27;20088;-87
2022/09/16 07:48:10;;;;;;;9.70;1.52;;;13.30;99.90;;;;;;5115850;27;20174;-88
2022/09/16 07:50:35;;;;;;;10.23;1.58;;;13.40;99.90;;;;;;5116361;27;20045;-88
2022/09/16 07:53:02;;;;;;;12.00;2.40;;;13.40;99.90;;;;;;5116040;27;20126;-87
2022/09/16 07:55:27;;;;;;;10.10;1.65;;;13.50;99.90;;;;;;5098195;27;20047;-88
2022/09/16 07:57:53;;;;;;;9.90;1.80;;;13.60;99.90;;;;;;5134175;27;20062;-88
2022/09/16 08:00:19;;;;;;;10.82;1.67;;;13.70;99.90;;;;;;5134270;27;20039;-88
2022/09/16 08:02:44;;;;;;;10.35;1.70;;;13.70;99.90;;;;;;5115701;27;20036;-88
2022/09/16 08:05:10;;;;;;;12.00;1.88;;;13.80;99.90;;;;;;5115775;27;20118;-88
2022/09/16 08:07:36;;;;;;;11.18;2.42;;;13.80;99.90;;;;;;5115745;27;20088;-88
2022/09/16 08:10:02;;;;;;;12.40;1.75;;;13.90;99.90;;;;;;5115986;27;20096;-88
2022/09/16 08:12:32;;;;;;;12.25;2.58;;;14.00;99.90;;;;;;5115246;27;20050;-88
2022/09/16 08:14:58;;;;;;;7.22;1.40;;;14.10;99.90;;;;;;5115912;27;20120;-89
2022/09/16 08:17:25;;;;;;;12.07;2.30;;;14.10;99.90;;;;;;5115516;27;20448;-88
2022/09/16 08:19:51;;;;;;;9.30;2.00;;;14.10;99.90;;;;;;5098212;27;20050;-88
2022/09/16 08:22:16;;;;;;;10.88;1.83;;;14.20;99.90;;;;;;5115185;27;20039;-88
2022/09/16 08:24:42;;;;;;;8.57;1.55;;;14.30;99.90;;;;;;5115766;27;20047;-88
2022/09/16 08:27:07;;;;;;;11.75;1.65;;;14.30;99.90;;;;;;5114664;27;20035;-88
2022/09/16 08:29:33;;;;;;;13.13;2.20;;;14.40;99.90;;;;;;5115673;27;20061;-89
2022/09/16 08:31:58;;;;;;;10.70;1.98;;;14.50;99.90;;;;;;5098678;27;20062;-89
2022/09/16 08:34:24;;;;;;;12.20;2.00;;;14.60;99.90;;;;;;5115537;27;20050;-88
2022/09/16 08:36:50;;;;;;;11.70;2.20;;;14.60;99.90;;;;;;5114087;27;20559;-88
2022/09/16 08:39:15;;;;;;;12.48;1.95;;;14.70;99.90;;;;;;5114530;27;20564;-88
2022/09/16 08:41:49;;;;;;;9.05;1.60;;;14.80;99.90;;;;;;5114661;27;20074;-89
2022/09/16 08:44:49;;;;;;;12.40;1.50;;;14.90;99.90;;;;;;5098908;27;20039;-89
2022/09/16 08:47:41;;;;;;;11.77;1.90;;;14.90;99.90;;;;;;5115590;27;20035;-88
2022/09/16 08:50:15;;;;;;;12.48;2.25;;;15.00;99.90;;;;;;5098582;27;20038;-88
2022/09/16 08:52:42;;;;;;;9.07;1.55;;;15.10;99.90;;;;;;5115266;27;20426;-88
2022/09/16 08:55:14;;;;;;;12.15;2.95;;;15.10;99.90;;;;;;5115617;27;20119;-88
2022/09/16 08:57:46;;;;;;;12.23;2.35;;;15.30;99.90;;;;;;5115175;27;20070;-91
2022/09/16 09:00:15;;;;;;;10.90;2.55;;;15.40;99.90;;;;;;5098889;27;20136;-89
2022/09/16 09:02:46;;;;;;;11.82;2.47;;;15.40;99.90;;;;;;5095756;27;20050;-89
2022/09/16 09:05:27;;;;;;;12.00;2.25;;;15.50;99.90;;;;;;5114435;27;20438;-91
2022/09/16 09:08:06;;;;;;;12.52;2.97;;;15.60;99.90;;;;;;5114149;27;20049;-89
2022/09/16 09:10:53;;;;;;;11.13;1.90;;;15.60;99.90;;;;;;5114730;27;20035;-88
2022/09/16 09:13:37;;;;;;;11.85;1.80;;;15.50;99.90;;;;;;5114590;27;20593;-89
2022/09/16 09:16:33;;;;;;;15.35;2.45;;;15.40;99.90;;;;;;5113995;27;20050;-89
2022/09/16 09:19:20;;;;;;;11.85;2.38;;;15.50;99.90;;;;;;5097394;27;20042;-89
2022/09/16 09:22:27;;;;;;;12.68;2.38;;;15.40;99.90;;;;;;5097398;27;20071;-89
2022/09/16 09:25:19;;;;;;;12.60;2.00;;;15.40;99.90;;;;;;5114099;27;20039;-89
2022/09/16 09:27:52;;;;;;;9.98;2.00;;;15.30;99.90;;;;;;5113550;27;20041;-89
2022/09/16 09:30:24;;;;;;;16.73;2.50;;;15.40;99.90;;;;;;5097534;27;20059;-88
2022/09/16 09:33:22;;;;;;;16.40;3.05;;;15.50;99.90;;;;;;5114017;27;20484;-89
2022/09/16 09:36:10;;;;;;;11.20;2.28;;;15.60;99.90;;;;;;5092331;27;20050;-89
2022/09/16 09:38:45;;;;;;;12.43;2.80;;;15.80;99.90;;;;;;5114640;27;20122;-89
2022/09/16 09:41:28;;;;;;;10.85;1.92;;;15.90;99.90;;;;;;5096532;27;20092;-89
2022/09/16 09:44:00;;;;;;;;;;;16.00;99.90;;;;;;5097611;27;20039;-89
2022/09/16 09:46:40;;;;;;;11.50;2.17;;;16.00;99.90;;;;;;5114139;27;19938;-89
2022/09/16 09:49:14;;;;;;;12.27;2.22;;;16.20;99.90;;;;;;5096824;27;20053;-90
2022/09/16 09:51:46;;;;;;;11.82;2.65;;;16.20;99.90;;;;;;5113282;27;20042;-89
2022/09/16 09:54:24;;;;;;;10.98;2.08;;;16.30;99.90;;;;;;5097175;27;20035;-89
2022/09/16 09:56:56;;;;;;;16.17;2.85;;;16.40;99.90;;;;;;5113792;27;20051;-89
2022/09/16 09:59:33;;;;;;;12.57;2.17;;;16.50;99.90;;;;;;5113826;27;20039;-88
2022/09/16 10:02:00;;;;;;;12.70;2.40;;;16.60;99.90;;;;;;5113843;28;20500;-89
2022/09/16 10:04:37;;;;;;;11.85;2.17;;;16.70;99.90;;;;;;5096147;27;20084;-88
2022/09/16 10:07:04;;;;;;;11.63;2.05;;;16.80;99.90;;;;;;5113383;28;20126;-89
2022/09/16 10:09:30;;;;;;;9.70;2.25;;;16.90;99.90;;;;;;5096932;27;20515;-90
2022/09/16 10:11:56;;;;;;;11.52;2.50;;;17.00;99.90;;;;;;5113220;27;20049;-89
2022/09/16 10:14:25;;;;;;;14.38;2.35;;;17.10;98.30;;;;;;5113714;28;20125;-89
2022/09/16 10:16:52;;;;;;;10.77;1.75;;;17.10;98.60;;;;;;5113280;28;20081;-89
2022/09/16 10:19:26;;;;;;;10.05;2.17;;;17.20;95.50;;;;;;5112701;28;20039;-89
2022/09/16 10:21:53;;;;;;;10.75;2.22;;;17.20;92.00;;;;;;5113286;28;20045;-90
2022/09/16 10:24:32;;;;;;;12.07;2.22;;;17.10;94.50;;;;;;5113078;28;20104;-89
2022/09/16 10:27:00;;;;;;;10.30;1.90;;;17.20;95.00;;;;;;5095667;28;20046;-89
2022/09/16 10:29:27;;;;;;;10.60;2.15;;;17.30;93.60;;;;;;5096910;28;20392;-89
2022/09/16 10:31:53;;;;;;;12.85;2.35;;;17.40;93.50;;;;;;5113446;28;20078;-89
2022/09/16 10:34:35;;;;;;;12.15;2.28;;;17.50;93.70;;;;;;5113250;28;20042;-89
2022/09/16 10:37:06;;;;;;;8.43;1.80;;;17.60;93.80;;;;;;5113427;28;20043;-89
2022/09/16 10:39:32;;;;;;;10.43;2.10;;;17.70;94.70;;;;;;5112839;28;20126;-91
2022/09/16 10:41:59;;;;;;;10.40;1.80;;;17.80;86.00;;;;;;5112963;28;20126;-90
2022/09/16 10:44:32;;;;;;;22.98;3.30;;;17.90;87.00;;;;;;5096156;28;20039;-90
2022/09/16 10:47:01;;;;;;;24.98;3.88;;;17.60;89.10;;;;;;5095977;28;20681;-90
2022/09/16 10:49:51;;;;;;;8.85;1.50;;;17.40;97.20;;;;;;5113378;28;20035;-91
2022/09/16 10:52:21;;;;;;;7.53;1.35;;;17.10;97.90;;;;;;5098850;28;20125;-90
2022/09/16 10:54:48;;;;;;;4.68;1.10;;;16.90;99.90;;;;;;5113128;28;20043;-90
2022/09/16 10:57:31;;;;;;;4.90;1.38;;;16.80;99.90;;;;;;5113175;28;20404;-91
2022/09/16 11:00:12;;;;;;;8.48;1.70;;;16.80;99.90;;;;;;5113606;28;20674;-91
2022/09/16 11:02:52;;;;;;;10.02;2.08;;;16.80;99.90;;;;;;5112579;28;20039;-91
2022/09/16 11:05:43;;;;;;;9.07;1.80;;;17.00;99.90;;;;;;5112918;28;20638;-91
2022/09/16 11:08:17;;;;;;;9.50;2.05;;;17.10;99.90;;;;;;5113218;28;20043;-91
2022/09/16 11:10:54;;;;;;;10.18;2.10;;;17.20;99.90;;;;;;5113118;28;20411;-90
2022/09/16 11:13:28;;;;;;;9.27;2.05;;;17.40;99.90;;;;;;5113324;28;20085;-90
2022/09/16 11:16:28;;;;;;;11.48;2.17;;;17.50;99.90;;;;;;5113343;28;20100;-91
2022/09/16 11:19:02;;;;;;;9.27;1.85;;;17.60;99.90;;;;;;5111470;28;20118;-90
2022/09/16 11:21:31;;;;;;;9.63;2.22;;;17.60;99.90;;;;;;5112391;28;20045;-90
2022/09/16 11:24:38;;;;;;;10.25;1.88;;;17.60;99.90;;;;;;5113678;28;20446;-91
2022/09/16 11:27:29;;;;;;;11.32;2.03;;;17.50;97.90;;;;;;5096134;28;20031;-90
2022/09/16 11:30:12;;;;;;;11.25;2.28;;;17.40;98.90;;;;;;5095873;27;20063;-91
2022/09/16 11:32:43;;;;;;;12.73;2.08;;;17.30;97.70;;;;;;5115856;27;20615;-91
2022/09/16 11:35:38;;;;;;;11.20;2.28;;;17.10;99.90;;;;;;5100269;27;20628;-91
2022/09/16 11:38:12;;;;;;;13.90;2.28;;;17.10;99.90;;;;;;5116204;27;20096;-90
2022/09/16 11:41:02;;;;;;;12.45;2.08;;;17.10;99.90;;;;;;5116200;27;20046;-91
2022/09/16 11:43:43;;;;;;;10.27;2.40;;;17.30;99.90;;;;;;5117080;27;20035;-89
2022/09/16 11:46:40;;;;;;;11.77;2.15;;;17.50;99.90;;;;;;5119818;27;20038;-91
2022/09/16 11:49:12;;;;;;;10.15;2.00;;;17.70;99.10;;;;;;5141675;27;20054;-90
2022/09/16 11:52:07;;;;;;;12.25;2.13;;;17.80;99.90;;;;;;5108211;27;20039;-91
2022/09/16 11:54:51;;;;;;;13.75;2.40;;;18.10;99.90;;;;;;5143355;27;20401;-91
2022/09/16 11:57:26;;;;;;;10.05;1.90;;;18.20;98.10;;;;;;5143919;27;20039;-90
2022/09/16 12:00:13;;;;;;;10.07;1.80;;;18.40;96.40;;;;;;5116231;27;20046;-91
2022/09/16 12:02:45;;;;;;;12.80;2.88;;;18.60;95.50;;;;;;5134040;27;20042;-90
2022/09/16 12:05:17;;;;;;;12.32;2.38;;;18.60;94.10;;;;;;5116032;27;20042;-91
2022/09/16 12:07:58;;;;;;;9.35;2.33;;;18.60;93.00;;;;;;5134522;27;20050;-91
2022/09/16 12:10:44;;;;;;;12.10;2.33;;;18.50;92.10;;;;;;5115774;27;20054;-91
2022/09/16 12:13:21;;;;;;;11.85;2.90;;;18.40;92.40;;;;;;5115336;27;20046;-90
2022/09/16 12:16:01;;;;;;;11.60;2.67;;;18.40;93.10;;;;;;5099075;27;20035;-90
2022/09/16 12:18:33;;;;;;;17.17;3.80;;;18.30;96.50;;;;;;5116081;27;20396;-90
2022/09/16 12:21:10;;;;;;;13.90;2.40;;;18.10;99.90;;;;;;5098822;27;20035;-91
2022/09/16 12:23:46;;;;;;;11.82;2.55;;;17.90;99.90;;;;;;5115764;27;20065;-90
2022/09/16 12:26:29;;;;;;;9.65;2.40;;;17.90;99.90;;;;;;5098835;27;20453;-90
2022/09/16 12:29:25;;;;;;;11.70;1.95;;;18.20;99.90;;;;;;5115694;27;20039;-91
2022/09/16 12:32:03;;;;;;;11.00;1.95;;;18.40;99.90;;;;;;5114666;27;20488;-91
2022/09/16 12:34:35;;;;;;;8.57;1.80;;;18.50;99.90;;;;;;5115287;27;20404;-91
2022/09/16 12:37:25;;;;;;;10.88;2.30;;;18.60;99.90;;;;;;5098385;27;20035;-90
2022/09/16 12:39:51;;;;;;;11.50;1.98;;;18.70;99.90;;;;;;5115102;27;20054;-90
2022/09/16 12:42:33;;;;;;;4.70;1.00;;;18.60;99.90;;;;;;5097524;27;20035;-91
2022/09/16 12:45:02;;;;;;;6.63;1.40;;;18.50;95.30;;;;;;5115426;27;20043;-91
2022/09/16 12:47:34;;;;;;;4.93;1.00;;;18.00;93.70;;;;;;5114983;27;20041;-91
2022/09/16 12:50:18;;;;;;;6.95;1.30;;;17.60;93.20;;;;;;5115394;27;20065;-91
2022/09/16 12:52:58;;;;;;;7.75;1.27;;;17.00;95.00;;;;;;5097711;27;20070;-90
2022/09/16 12:55:47;;;;;;;3.95;0.85;;;16.60;97.10;;;;;;5114812;27;20046;-91
2022/09/16 12:58:43;;;;;;;5.35;1.02;;;16.30;99.10;;;;;;5097767;27;20071;-91
2022/09/16 13:01:17;;;;;;;5.47;1.20;;;16.40;99.90;;;;;;5097431;27;20033;-91
2022/09/16 13:03:47;;;;;;;6.53;1.20;;;16.50;99.90;;;;;;5115106;27;20043;-91
2022/09/16 13:06:30;;;;;;;8.90;1.52;;;16.80;99.90;;;;;;5115008;27;20088;-91
2022/09/16 13:09:25;;;;;;;8.68;1.73;;;17.20;99.90;;;;;;5125098;27;20050;-91
2022/09/16 13:12:04;;;;;;;10.07;1.73;;;17.50;99.90;;;;;;5122695;27;20039;-91